sensor_id;sensor_type;location;lat;lon;timestamp;P1;durP1;ratioP1;P2;durP2;ratioP2
11016;SDS011;54687;50.800;6.772;2023-09-30T00:01:40;6.25;;;4.57;;
11016;SDS011;54687;50.800;6.772;2023-09-30T00:04:06;6.47;;;4.03;;
11016;SDS011;54687;50.800;6.772;2023-09-30T00:06:35;8.77;;;4.68;;
11016;SDS011;54687;50.800;6.772;2023-09-30T00:09:02;6.95;;;4.50;;
11016;SDS011;54687;50.800;6.772;2023-09-30T00:11:30;8.02;;;4.35;;
11016;SDS011;54687;50.800;6.772;2023-09-30T00:13:57;6.72;;;4.10;;
11016;SDS011;54687;50.800;6.772;2023-09-30T00:16:23;7.03;;;4.10;;
11016;SDS011;54687;50.800;6.772;2023-09-30T00:18:52;6.63;;;4.22;;
11016;SDS011;54687;50.800;6.772;2023-09-30T00:21:22;7.05;;;4.85;;
11016;SDS011;54687;50.800;6.772;2023-09-30T00:23:51;9.48;;;5.32;;
11016;SDS011;54687;50.800;6.772;2023-09-30T00:26:20;6.53;;;4.15;;
11016;SDS011;54687;50.800;6.772;2023-09-30T00:28:49;9.93;;;4.72;;
11016;SDS011;54687;50.800;6.772;2023-09-30T00:31:19;7.88;;;5.13;;
11016;SDS011;54687;50.800;6.772;2023-09-30T00:33:51;7.38;;;4.65;;
11016;SDS011;54687;50.800;6.772;2023-09-30T00:36:22;6.10;;;4.45;;
11016;SDS011;54687;50.800;6.772;2023-09-30T00:38:53;7.10;;;4.65;;
11016;SDS011;54687;50.800;6.772;2023-09-30T00:41:24;9.02;;;4.65;;
11016;SDS011;54687;50.800;6.772;2023-09-30T00:43:54;6.85;;;4.50;;
11016;SDS011;54687;50.800;6.772;2023-09-30T00:46:25;5.90;;;4.55;;
11016;SDS011;54687;50.800;6.772;2023-09-30T00:48:54;7.82;;;4.60;;
11016;SDS011;54687;50.800;6.772;2023-09-30T00:51:43;7.20;;;5.00;;
11016;SDS011;54687;50.800;6.772;2023-09-30T00:54:14;7.70;;;4.75;;
11016;SDS011;54687;50.800;6.772;2023-09-30T00:56:44;8.20;;;4.38;;
11016;SDS011;54687;50.800;6.772;2023-09-30T00:59:14;6.47;;;4.60;;
11016;SDS011;54687;50.800;6.772;2023-09-30T01:01:41;9.02;;;5.07;;
11016;SDS011;54687;50.800;6.772;2023-09-30T01:04:09;7.68;;;5.50;;
11016;SDS011;54687;50.800;6.772;2023-09-30T01:06:36;8.23;;;5.43;;
11016;SDS011;54687;50.800;6.772;2023-09-30T01:09:05;8.00;;;4.78;;
11016;SDS011;54687;50.800;6.772;2023-09-30T01:11:40;7.03;;;4.45;;
11016;SDS011;54687;50.800;6.772;2023-09-30T01:16:52;5.95;;;4.93;;
11016;SDS011;54687;50.800;6.772;2023-09-30T01:19:22;6.43;;;4.72;;
11016;SDS011;54687;50.800;6.772;2023-09-30T01:21:53;11.70;;;4.82;;
11016;SDS011;54687;50.800;6.772;2023-09-30T01:24:27;7.18;;;4.88;;
11016;SDS011;54687;50.800;6.772;2023-09-30T01:26:54;5.93;;;4.55;;
11016;SDS011;54687;50.800;6.772;2023-09-30T01:29:21;8.85;;;4.68;;
11016;SDS011;54687;50.800;6.772;2023-09-30T01:31:47;7.93;;;4.32;;
11016;SDS011;54687;50.800;6.772;2023-09-30T01:34:15;7.75;;;4.63;;
11016;SDS011;54687;50.800;6.772;2023-09-30T01:36:42;4.97;;;4.45;;
11016;SDS011;54687;50.800;6.772;2023-09-30T01:39:11;6.32;;;4.63;;
11016;SDS011;54687;50.800;6.772;2023-09-30T01:41:39;5.63;;;4.55;;
11016;SDS011;54687;50.800;6.772;2023-09-30T01:44:06;7.65;;;4.60;;
11016;SDS011;54687;50.800;6.772;2023-09-30T01:46:34;6.60;;;4.90;;
11016;SDS011;54687;50.800;6.772;2023-09-30T01:49:01;6.15;;;4.72;;
11016;SDS011;54687;50.800;6.772;2023-09-30T01:51:28;8.57;;;4.97;;
11016;SDS011;54687;50.800;6.772;2023-09-30T01:53:55;10.60;;;4.97;;
11016;SDS011;54687;50.800;6.772;2023-09-30T01:56:23;8.13;;;4.40;;
11016;SDS011;54687;50.800;6.772;2023-09-30T01:58:50;9.30;;;5.07;;
11016;SDS011;54687;50.800;6.772;2023-09-30T02:01:16;6.35;;;5.15;;
11016;SDS011;54687;50.800;6.772;2023-09-30T02:03:43;9.52;;;4.72;;
11016;SDS011;54687;50.800;6.772;2023-09-30T02:06:10;8.23;;;4.78;;
11016;SDS011;54687;50.800;6.772;2023-09-30T02:08:36;5.78;;;4.88;;
11016;SDS011;54687;50.800;6.772;2023-09-30T02:11:03;8.27;;;4.68;;
11016;SDS011;54687;50.800;6.772;2023-09-30T02:13:32;7.45;;;4.82;;
11016;SDS011;54687;50.800;6.772;2023-09-30T02:15:59;9.30;;;5.15;;
11016;SDS011;54687;50.800;6.772;2023-09-30T02:18:26;6.28;;;4.70;;
11016;SDS011;54687;50.800;6.772;2023-09-30T02:20:53;7.50;;;4.70;;
11016;SDS011;54687;50.800;6.772;2023-09-30T02:23:20;11.55;;;4.57;;
11016;SDS011;54687;50.800;6.772;2023-09-30T02:25:47;8.02;;;4.50;;
11016;SDS011;54687;50.800;6.772;2023-09-30T02:28:14;7.18;;;4.68;;
11016;SDS011;54687;50.800;6.772;2023-09-30T02:30:42;10.32;;;4.68;;
11016;SDS011;54687;50.800;6.772;2023-09-30T02:33:08;6.82;;;4.60;;
11016;SDS011;54687;50.800;6.772;2023-09-30T02:35:35;7.57;;;4.55;;
11016;SDS011;54687;50.800;6.772;2023-09-30T02:38:04;8.93;;;4.25;;
11016;SDS011;54687;50.800;6.772;2023-09-30T02:40:32;6.88;;;4.68;;
11016;SDS011;54687;50.800;6.772;2023-09-30T02:42:58;6.85;;;4.47;;
11016;SDS011;54687;50.800;6.772;2023-09-30T02:45:25;7.53;;;5.10;;
11016;SDS011;54687;50.800;6.772;2023-09-30T02:47:54;8.85;;;5.60;;
11016;SDS011;54687;50.800;6.772;2023-09-30T02:50:21;8.30;;;5.05;;
11016;SDS011;54687;50.800;6.772;2023-09-30T02:52:47;6.60;;;4.53;;
11016;SDS011;54687;50.800;6.772;2023-09-30T02:55:15;8.65;;;4.90;;
11016;SDS011;54687;50.800;6.772;2023-09-30T02:57:41;8.35;;;4.30;;
11016;SDS011;54687;50.800;6.772;2023-09-30T03:00:09;7.28;;;4.40;;
11016;SDS011;54687;50.800;6.772;2023-09-30T03:02:48;7.22;;;4.30;;
11016;SDS011;54687;50.800;6.772;2023-09-30T03:05:16;8.48;;;4.53;;
11016;SDS011;54687;50.800;6.772;2023-09-30T03:07:42;8.98;;;4.82;;
11016;SDS011;54687;50.800;6.772;2023-09-30T03:10:10;8.68;;;4.82;;
11016;SDS011;54687;50.800;6.772;2023-09-30T03:12:38;9.05;;;4.90;;
11016;SDS011;54687;50.800;6.772;2023-09-30T03:15:05;6.50;;;4.70;;
11016;SDS011;54687;50.800;6.772;2023-09-30T03:17:32;6.43;;;4.50;;
11016;SDS011;54687;50.800;6.772;2023-09-30T03:19:58;11.05;;;4.90;;
11016;SDS011;54687;50.800;6.772;2023-09-30T03:22:30;6.80;;;4.50;;
11016;SDS011;54687;50.800;6.772;2023-09-30T03:24:56;10.02;;;4.57;;
11016;SDS011;54687;50.800;6.772;2023-09-30T03:27:23;6.20;;;4.07;;
11016;SDS011;54687;50.800;6.772;2023-09-30T03:29:49;8.23;;;4.97;;
11016;SDS011;54687;50.800;6.772;2023-09-30T03:32:16;9.40;;;4.95;;
11016;SDS011;54687;50.800;6.772;2023-09-30T03:34:43;11.13;;;6.80;;
11016;SDS011;54687;50.800;6.772;2023-09-30T03:37:11;8.90;;;5.22;;
11016;SDS011;54687;50.800;6.772;2023-09-30T03:39:40;8.05;;;4.80;;
11016;SDS011;54687;50.800;6.772;2023-09-30T03:42:08;8.60;;;4.93;;
11016;SDS011;54687;50.800;6.772;2023-09-30T03:44:36;7.28;;;4.90;;
11016;SDS011;54687;50.800;6.772;2023-09-30T03:47:03;8.25;;;4.78;;
11016;SDS011;54687;50.800;6.772;2023-09-30T03:49:30;7.18;;;4.65;;
11016;SDS011;54687;50.800;6.772;2023-09-30T03:51:57;9.27;;;4.85;;
11016;SDS011;54687;50.800;6.772;2023-09-30T03:54:23;8.77;;;4.50;;
11016;SDS011;54687;50.800;6.772;2023-09-30T03:56:51;7.65;;;4.72;;
11016;SDS011;54687;50.800;6.772;2023-09-30T03:59:18;9.02;;;4.55;;
11016;SDS011;54687;50.800;6.772;2023-09-30T04:01:44;5.97;;;5.28;;
11016;SDS011;54687;50.800;6.772;2023-09-30T04:04:12;7.25;;;4.80;;
11016;SDS011;54687;50.800;6.772;2023-09-30T04:06:39;6.35;;;4.70;;
11016;SDS011;54687;50.800;6.772;2023-09-30T04:09:06;9.90;;;5.20;;
11016;SDS011;54687;50.800;6.772;2023-09-30T04:11:36;5.95;;;4.90;;
11016;SDS011;54687;50.800;6.772;2023-09-30T04:14:04;6.05;;;4.95;;
11016;SDS011;54687;50.800;6.772;2023-09-30T04:16:34;7.93;;;4.57;;
11016;SDS011;54687;50.800;6.772;2023-09-30T04:19:02;7.20;;;4.53;;
11016;SDS011;54687;50.800;6.772;2023-09-30T04:21:29;7.22;;;4.80;;
11016;SDS011;54687;50.800;6.772;2023-09-30T04:23:59;6.22;;;4.43;;
11016;SDS011;54687;50.800;6.772;2023-09-30T04:26:26;7.45;;;5.07;;
11016;SDS011;54687;50.800;6.772;2023-09-30T04:28:53;5.65;;;4.50;;
11016;SDS011;54687;50.800;6.772;2023-09-30T04:31:22;8.50;;;4.78;;
11016;SDS011;54687;50.800;6.772;2023-09-30T04:33:49;7.40;;;4.97;;
11016;SDS011;54687;50.800;6.772;2023-09-30T04:36:18;6.00;;;4.35;;
11016;SDS011;54687;50.800;6.772;2023-09-30T04:38:44;7.85;;;4.68;;
11016;SDS011;54687;50.800;6.772;2023-09-30T04:41:12;6.85;;;4.75;;
11016;SDS011;54687;50.800;6.772;2023-09-30T04:43:40;8.25;;;5.15;;
11016;SDS011;54687;50.800;6.772;2023-09-30T04:46:08;10.48;;;5.55;;
11016;SDS011;54687;50.800;6.772;2023-09-30T04:48:39;7.00;;;4.60;;
11016;SDS011;54687;50.800;6.772;2023-09-30T04:51:06;8.27;;;5.25;;
11016;SDS011;54687;50.800;6.772;2023-09-30T04:53:33;7.07;;;4.82;;
11016;SDS011;54687;50.800;6.772;2023-09-30T04:56:00;6.47;;;5.30;;
11016;SDS011;54687;50.800;6.772;2023-09-30T04:58:26;8.13;;;4.85;;
11016;SDS011;54687;50.800;6.772;2023-09-30T05:00:54;8.73;;;5.05;;
11016;SDS011;54687;50.800;6.772;2023-09-30T05:03:21;6.72;;;4.90;;
11016;SDS011;54687;50.800;6.772;2023-09-30T05:05:50;8.13;;;4.80;;
11016;SDS011;54687;50.800;6.772;2023-09-30T05:08:19;5.93;;;4.88;;
11016;SDS011;54687;50.800;6.772;2023-09-30T05:10:46;7.72;;;5.00;;
11016;SDS011;54687;50.800;6.772;2023-09-30T05:13:14;7.25;;;4.93;;
11016;SDS011;54687;50.800;6.772;2023-09-30T05:15:42;7.70;;;4.95;;
11016;SDS011;54687;50.800;6.772;2023-09-30T05:18:09;9.13;;;5.68;;
11016;SDS011;54687;50.800;6.772;2023-09-30T05:20:36;8.13;;;5.57;;
11016;SDS011;54687;50.800;6.772;2023-09-30T05:23:05;7.13;;;5.43;;
11016;SDS011;54687;50.800;6.772;2023-09-30T05:25:33;9.65;;;5.43;;
11016;SDS011;54687;50.800;6.772;2023-09-30T05:28:00;7.85;;;5.45;;
11016;SDS011;54687;50.800;6.772;2023-09-30T05:30:26;8.60;;;5.57;;
11016;SDS011;54687;50.800;6.772;2023-09-30T05:32:53;6.90;;;5.60;;
11016;SDS011;54687;50.800;6.772;2023-09-30T05:35:20;9.52;;;5.95;;
11016;SDS011;54687;50.800;6.772;2023-09-30T05:37:48;7.30;;;5.85;;
11016;SDS011;54687;50.800;6.772;2023-09-30T05:40:19;8.45;;;5.30;;
11016;SDS011;54687;50.800;6.772;2023-09-30T05:42:51;7.40;;;5.35;;
11016;SDS011;54687;50.800;6.772;2023-09-30T05:45:19;6.80;;;5.72;;
11016;SDS011;54687;50.800;6.772;2023-09-30T05:47:46;9.85;;;5.70;;
11016;SDS011;54687;50.800;6.772;2023-09-30T05:50:13;6.82;;;5.47;;
11016;SDS011;54687;50.800;6.772;2023-09-30T05:52:41;8.80;;;5.43;;
11016;SDS011;54687;50.800;6.772;2023-09-30T05:55:08;8.10;;;5.82;;
11016;SDS011;54687;50.800;6.772;2023-09-30T05:57:36;9.48;;;6.15;;
11016;SDS011;54687;50.800;6.772;2023-09-30T06:00:04;7.35;;;5.85;;
11016;SDS011;54687;50.800;6.772;2023-09-30T06:02:46;7.90;;;6.40;;
11016;SDS011;54687;50.800;6.772;2023-09-30T06:05:13;7.68;;;6.20;;
11016;SDS011;54687;50.800;6.772;2023-09-30T06:07:41;9.32;;;5.93;;
11016;SDS011;54687;50.800;6.772;2023-09-30T06:10:10;8.68;;;6.80;;
11016;SDS011;54687;50.800;6.772;2023-09-30T06:12:38;7.97;;;6.75;;
11016;SDS011;54687;50.800;6.772;2023-09-30T06:15:05;7.85;;;7.05;;
11016;SDS011;54687;50.800;6.772;2023-09-30T06:17:33;11.35;;;7.45;;
11016;SDS011;54687;50.800;6.772;2023-09-30T06:19:59;8.05;;;7.20;;
11016;SDS011;54687;50.800;6.772;2023-09-30T06:22:34;10.30;;;8.02;;
11016;SDS011;54687;50.800;6.772;2023-09-30T06:25:00;11.07;;;8.38;;
11016;SDS011;54687;50.800;6.772;2023-09-30T06:27:29;10.85;;;8.75;;
11016;SDS011;54687;50.800;6.772;2023-09-30T06:29:56;10.73;;;9.70;;
11016;SDS011;54687;50.800;6.772;2023-09-30T06:32:23;12.48;;;9.82;;
11016;SDS011;54687;50.800;6.772;2023-09-30T06:34:50;12.15;;;10.95;;
11016;SDS011;54687;50.800;6.772;2023-09-30T06:37:17;10.95;;;9.85;;
11016;SDS011;54687;50.800;6.772;2023-09-30T06:39:45;11.35;;;10.35;;
11016;SDS011;54687;50.800;6.772;2023-09-30T06:42:11;11.02;;;10.07;;
11016;SDS011;54687;50.800;6.772;2023-09-30T06:44:38;12.88;;;11.60;;
11016;SDS011;54687;50.800;6.772;2023-09-30T06:47:06;12.35;;;11.13;;
11016;SDS011;54687;50.800;6.772;2023-09-30T06:49:37;12.98;;;11.68;;
11016;SDS011;54687;50.800;6.772;2023-09-30T06:52:04;13.38;;;11.75;;
11016;SDS011;54687;50.800;6.772;2023-09-30T06:54:30;13.73;;;12.32;;
11016;SDS011;54687;50.800;6.772;2023-09-30T06:56:57;14.80;;;13.40;;
11016;SDS011;54687;50.800;6.772;2023-09-30T06:59:24;14.00;;;12.68;;
11016;SDS011;54687;50.800;6.772;2023-09-30T07:01:51;14.25;;;12.95;;
11016;SDS011;54687;50.800;6.772;2023-09-30T07:04:19;14.20;;;12.73;;
11016;SDS011;54687;50.800;6.772;2023-09-30T07:06:46;14.60;;;13.25;;
11016;SDS011;54687;50.800;6.772;2023-09-30T07:09:13;14.57;;;13.27;;
11016;SDS011;54687;50.800;6.772;2023-09-30T07:11:40;15.07;;;13.63;;
11016;SDS011;54687;50.800;6.772;2023-09-30T07:14:07;15.60;;;14.10;;
11016;SDS011;54687;50.800;6.772;2023-09-30T07:16:33;14.05;;;12.52;;
11016;SDS011;54687;50.800;6.772;2023-09-30T07:19:00;14.25;;;12.88;;
11016;SDS011;54687;50.800;6.772;2023-09-30T07:21:29;14.23;;;12.82;;
11016;SDS011;54687;50.800;6.772;2023-09-30T07:23:56;12.40;;;11.27;;
11016;SDS011;54687;50.800;6.772;2023-09-30T07:26:23;12.82;;;11.73;;
11016;SDS011;54687;50.800;6.772;2023-09-30T07:28:50;12.20;;;11.10;;
11016;SDS011;54687;50.800;6.772;2023-09-30T07:31:19;11.85;;;10.65;;
11016;SDS011;54687;50.800;6.772;2023-09-30T07:33:47;12.60;;;11.50;;
11016;SDS011;54687;50.800;6.772;2023-09-30T07:36:14;11.52;;;10.52;;
11016;SDS011;54687;50.800;6.772;2023-09-30T07:38:42;11.85;;;10.85;;
11016;SDS011;54687;50.800;6.772;2023-09-30T07:41:08;11.00;;;10.00;;
11016;SDS011;54687;50.800;6.772;2023-09-30T07:43:35;11.20;;;10.13;;
11016;SDS011;54687;50.800;6.772;2023-09-30T07:46:05;11.57;;;10.57;;
11016;SDS011;54687;50.800;6.772;2023-09-30T07:48:31;11.63;;;9.93;;
11016;SDS011;54687;50.800;6.772;2023-09-30T07:50:58;10.48;;;9.48;;
11016;SDS011;54687;50.800;6.772;2023-09-30T07:53:24;10.18;;;9.27;;
11016;SDS011;54687;50.800;6.772;2023-09-30T07:55:52;11.57;;;10.23;;
11016;SDS011;54687;50.800;6.772;2023-09-30T07:58:19;10.70;;;9.20;;
11016;SDS011;54687;50.800;6.772;2023-09-30T08:00:46;10.10;;;9.20;;
11016;SDS011;54687;50.800;6.772;2023-09-30T08:03:13;9.75;;;8.75;;
11016;SDS011;54687;50.800;6.772;2023-09-30T08:05:39;9.23;;;8.38;;
11016;SDS011;54687;50.800;6.772;2023-09-30T08:08:07;9.38;;;7.95;;
11016;SDS011;54687;50.800;6.772;2023-09-30T08:10:34;8.23;;;7.53;;
11016;SDS011;54687;50.800;6.772;2023-09-30T08:13:03;9.07;;;8.23;;
11016;SDS011;54687;50.800;6.772;2023-09-30T08:15:30;7.35;;;6.60;;
11016;SDS011;54687;50.800;6.772;2023-09-30T08:17:57;6.18;;;5.50;;
11016;SDS011;54687;50.800;6.772;2023-09-30T08:20:23;5.85;;;5.35;;
11016;SDS011;54687;50.800;6.772;2023-09-30T08:22:50;6.70;;;5.53;;
11016;SDS011;54687;50.800;6.772;2023-09-30T08:25:17;5.68;;;5.18;;
11016;SDS011;54687;50.800;6.772;2023-09-30T08:27:43;7.80;;;4.90;;
11016;SDS011;54687;50.800;6.772;2023-09-30T08:30:15;5.18;;;4.72;;
11016;SDS011;54687;50.800;6.772;2023-09-30T08:32:42;4.95;;;4.05;;
11016;SDS011;54687;50.800;6.772;2023-09-30T08:35:09;4.60;;;4.20;;
11016;SDS011;54687;50.800;6.772;2023-09-30T08:37:36;6.40;;;5.03;;
11016;SDS011;54687;50.800;6.772;2023-09-30T08:40:03;6.00;;;5.18;;
11016;SDS011;54687;50.800;6.772;2023-09-30T08:42:30;8.65;;;5.60;;
11016;SDS011;54687;50.800;6.772;2023-09-30T08:44:59;5.70;;;4.93;;
11016;SDS011;54687;50.800;6.772;2023-09-30T08:47:27;5.05;;;4.40;;
11016;SDS011;54687;50.800;6.772;2023-09-30T08:49:54;6.75;;;4.68;;
11016;SDS011;54687;50.800;6.772;2023-09-30T08:52:31;5.13;;;4.18;;
11016;SDS011;54687;50.800;6.772;2023-09-30T08:54:58;4.40;;;4.00;;
11016;SDS011;54687;50.800;6.772;2023-09-30T08:57:25;4.65;;;3.90;;
11016;SDS011;54687;50.800;6.772;2023-09-30T08:59:55;4.57;;;3.80;;
11016;SDS011;54687;50.800;6.772;2023-09-30T09:02:22;4.43;;;3.85;;
11016;SDS011;54687;50.800;6.772;2023-09-30T09:04:50;4.85;;;4.03;;
11016;SDS011;54687;50.800;6.772;2023-09-30T09:07:17;4.65;;;4.18;;
11016;SDS011;54687;50.800;6.772;2023-09-30T09:10:00;4.22;;;3.83;;
11016;SDS011;54687;50.800;6.772;2023-09-30T09:12:29;6.70;;;5.63;;
11016;SDS011;54687;50.800;6.772;2023-09-30T09:14:56;5.72;;;4.72;;
11016;SDS011;54687;50.800;6.772;2023-09-30T09:17:22;4.80;;;4.40;;
11016;SDS011;54687;50.800;6.772;2023-09-30T09:19:58;7.78;;;5.13;;
11016;SDS011;54687;50.800;6.772;2023-09-30T09:22:37;6.13;;;5.00;;
11016;SDS011;54687;50.800;6.772;2023-09-30T09:25:04;19.80;;;8.25;;
11016;SDS011;54687;50.800;6.772;2023-09-30T09:27:33;6.05;;;5.20;;
11016;SDS011;54687;50.800;6.772;2023-09-30T09:30:09;5.43;;;4.82;;
11016;SDS011;54687;50.800;6.772;2023-09-30T09:32:50;5.15;;;4.65;;
11016;SDS011;54687;50.800;6.772;2023-09-30T09:35:20;5.90;;;4.90;;
11016;SDS011;54687;50.800;6.772;2023-09-30T09:37:53;5.80;;;4.95;;
11016;SDS011;54687;50.800;6.772;2023-09-30T09:40:22;5.57;;;4.45;;
11016;SDS011;54687;50.800;6.772;2023-09-30T09:42:49;6.28;;;4.50;;
11016;SDS011;54687;50.800;6.772;2023-09-30T09:45:19;5.28;;;4.50;;
11016;SDS011;54687;50.800;6.772;2023-09-30T09:47:48;5.53;;;4.55;;
11016;SDS011;54687;50.800;6.772;2023-09-30T09:50:17;6.00;;;4.72;;
11016;SDS011;54687;50.800;6.772;2023-09-30T09:52:45;5.40;;;4.57;;
11016;SDS011;54687;50.800;6.772;2023-09-30T09:55:16;6.57;;;4.88;;
11016;SDS011;54687;50.800;6.772;2023-09-30T09:57:43;7.18;;;4.10;;
11016;SDS011;54687;50.800;6.772;2023-09-30T10:00:11;7.00;;;4.32;;
11016;SDS011;54687;50.800;6.772;2023-09-30T10:02:40;6.35;;;4.35;;
11016;SDS011;54687;50.800;6.772;2023-09-30T10:05:07;5.55;;;3.60;;
11016;SDS011;54687;50.800;6.772;2023-09-30T10:07:37;5.35;;;3.63;;
11016;SDS011;54687;50.800;6.772;2023-09-30T10:10:11;4.88;;;3.22;;
11016;SDS011;54687;50.800;6.772;2023-09-30T10:12:41;8.18;;;3.63;;
11016;SDS011;54687;50.800;6.772;2023-09-30T10:18:01;5.32;;;4.13;;
11016;SDS011;54687;50.800;6.772;2023-09-30T10:20:29;6.78;;;4.45;;
11016;SDS011;54687;50.800;6.772;2023-09-30T10:28:45;8.15;;;5.45;;
11016;SDS011;54687;50.800;6.772;2023-09-30T10:31:15;6.95;;;4.63;;
11016;SDS011;54687;50.800;6.772;2023-09-30T10:36:44;5.20;;;3.72;;
11016;SDS011;54687;50.800;6.772;2023-09-30T10:39:13;6.63;;;4.43;;
11016;SDS011;54687;50.800;6.772;2023-09-30T10:44:32;7.00;;;4.78;;
11016;SDS011;54687;50.800;6.772;2023-09-30T10:46:59;7.57;;;4.47;;
11016;SDS011;54687;50.800;6.772;2023-09-30T10:49:30;7.72;;;4.15;;
11016;SDS011;54687;50.800;6.772;2023-09-30T10:52:01;5.80;;;4.20;;
11016;SDS011;54687;50.800;6.772;2023-09-30T10:54:28;8.48;;;4.63;;
11016;SDS011;54687;50.800;6.772;2023-09-30T10:56:56;5.32;;;4.18;;
11016;SDS011;54687;50.800;6.772;2023-09-30T10:59:27;8.18;;;4.20;;
11016;SDS011;54687;50.800;6.772;2023-09-30T11:01:55;7.32;;;5.22;;
11016;SDS011;54687;50.800;6.772;2023-09-30T11:04:23;9.77;;;5.00;;
11016;SDS011;54687;50.800;6.772;2023-09-30T11:06:49;13.93;;;8.07;;
11016;SDS011;54687;50.800;6.772;2023-09-30T11:09:17;9.07;;;5.80;;
11016;SDS011;54687;50.800;6.772;2023-09-30T11:11:45;8.85;;;5.45;;
11016;SDS011;54687;50.800;6.772;2023-09-30T11:14:18;7.82;;;5.15;;
11016;SDS011;54687;50.800;6.772;2023-09-30T11:16:50;5.15;;;3.95;;
11016;SDS011;54687;50.800;6.772;2023-09-30T11:19:18;8.88;;;4.30;;
11016;SDS011;54687;50.800;6.772;2023-09-30T11:21:48;8.75;;;4.97;;
11016;SDS011;54687;50.800;6.772;2023-09-30T11:24:16;6.03;;;4.50;;
11016;SDS011;54687;50.800;6.772;2023-09-30T11:26:43;8.07;;;5.60;;
11016;SDS011;54687;50.800;6.772;2023-09-30T11:29:11;6.30;;;3.72;;
11016;SDS011;54687;50.800;6.772;2023-09-30T11:31:39;7.07;;;4.20;;
11016;SDS011;54687;50.800;6.772;2023-09-30T11:34:07;6.00;;;3.53;;
11016;SDS011;54687;50.800;6.772;2023-09-30T11:36:35;4.70;;;3.40;;
11016;SDS011;54687;50.800;6.772;2023-09-30T11:39:03;5.97;;;3.40;;
11016;SDS011;54687;50.800;6.772;2023-09-30T11:41:33;7.10;;;4.78;;
11016;SDS011;54687;50.800;6.772;2023-09-30T11:44:02;5.95;;;3.83;;
11016;SDS011;54687;50.800;6.772;2023-09-30T11:46:47;5.15;;;3.55;;
11016;SDS011;54687;50.800;6.772;2023-09-30T11:49:29;6.75;;;3.72;;
11016;SDS011;54687;50.800;6.772;2023-09-30T11:51:58;6.60;;;3.13;;
11016;SDS011;54687;50.800;6.772;2023-09-30T11:54:29;5.63;;;3.28;;
11016;SDS011;54687;50.800;6.772;2023-09-30T11:57:00;8.40;;;3.47;;
11016;SDS011;54687;50.800;6.772;2023-09-30T11:59:28;5.05;;;3.63;;
11016;SDS011;54687;50.800;6.772;2023-09-30T12:01:54;15.82;;;8.77;;
11016;SDS011;54687;50.800;6.772;2023-09-30T12:04:21;8.25;;;5.88;;
11016;SDS011;54687;50.800;6.772;2023-09-30T12:06:49;8.02;;;5.07;;
11016;SDS011;54687;50.800;6.772;2023-09-30T12:09:16;5.85;;;3.15;;
11016;SDS011;54687;50.800;6.772;2023-09-30T12:11:47;6.68;;;3.58;;
11016;SDS011;54687;50.800;6.772;2023-09-30T12:14:14;5.47;;;3.28;;
11016;SDS011;54687;50.800;6.772;2023-09-30T12:16:41;6.07;;;3.28;;
11016;SDS011;54687;50.800;6.772;2023-09-30T12:19:10;8.23;;;4.00;;
11016;SDS011;54687;50.800;6.772;2023-09-30T12:21:36;7.40;;;3.22;;
11016;SDS011;54687;50.800;6.772;2023-09-30T12:24:05;4.18;;;3.00;;
11016;SDS011;54687;50.800;6.772;2023-09-30T12:26:32;4.55;;;3.10;;
11016;SDS011;54687;50.800;6.772;2023-09-30T12:28:59;4.50;;;3.00;;
11016;SDS011;54687;50.800;6.772;2023-09-30T12:31:26;5.45;;;3.10;;
11016;SDS011;54687;50.800;6.772;2023-09-30T12:33:52;5.10;;;3.13;;
11016;SDS011;54687;50.800;6.772;2023-09-30T12:36:20;6.40;;;3.70;;
11016;SDS011;54687;50.800;6.772;2023-09-30T12:38:47;6.00;;;3.17;;
11016;SDS011;54687;50.800;6.772;2023-09-30T12:41:15;5.63;;;3.42;;
11016;SDS011;54687;50.800;6.772;2023-09-30T12:43:44;6.00;;;3.70;;
11016;SDS011;54687;50.800;6.772;2023-09-30T12:46:11;6.28;;;4.03;;
11016;SDS011;54687;50.800;6.772;2023-09-30T12:48:38;6.78;;;3.65;;
11016;SDS011;54687;50.800;6.772;2023-09-30T12:51:05;6.38;;;3.55;;
11016;SDS011;54687;50.800;6.772;2023-09-30T12:53:32;8.73;;;6.80;;
11016;SDS011;54687;50.800;6.772;2023-09-30T12:55:59;9.02;;;5.85;;
11016;SDS011;54687;50.800;6.772;2023-09-30T12:58:27;4.20;;;3.17;;
11016;SDS011;54687;50.800;6.772;2023-09-30T13:00:54;5.68;;;3.60;;
11016;SDS011;54687;50.800;6.772;2023-09-30T13:03:21;5.35;;;3.35;;
11016;SDS011;54687;50.800;6.772;2023-09-30T13:05:47;5.30;;;2.97;;
11016;SDS011;54687;50.800;6.772;2023-09-30T13:08:14;4.63;;;2.72;;
11016;SDS011;54687;50.800;6.772;2023-09-30T13:10:40;4.93;;;3.30;;
11016;SDS011;54687;50.800;6.772;2023-09-30T13:13:09;6.13;;;3.33;;
11016;SDS011;54687;50.800;6.772;2023-09-30T13:15:37;5.22;;;3.35;;
11016;SDS011;54687;50.800;6.772;2023-09-30T13:18:04;4.00;;;3.38;;
11016;SDS011;54687;50.800;6.772;2023-09-30T13:20:31;5.45;;;3.83;;
11016;SDS011;54687;50.800;6.772;2023-09-30T13:22:57;4.93;;;3.50;;
11016;SDS011;54687;50.800;6.772;2023-09-30T13:25:24;5.03;;;3.15;;
11016;SDS011;54687;50.800;6.772;2023-09-30T13:27:51;4.18;;;3.45;;
11016;SDS011;54687;50.800;6.772;2023-09-30T13:30:18;4.63;;;3.30;;
11016;SDS011;54687;50.800;6.772;2023-09-30T13:32:46;5.13;;;3.10;;
11016;SDS011;54687;50.800;6.772;2023-09-30T13:35:13;4.78;;;3.38;;
11016;SDS011;54687;50.800;6.772;2023-09-30T13:37:40;4.88;;;3.38;;
11016;SDS011;54687;50.800;6.772;2023-09-30T13:40:07;4.50;;;3.17;;
11016;SDS011;54687;50.800;6.772;2023-09-30T13:42:37;5.65;;;3.35;;
11016;SDS011;54687;50.800;6.772;2023-09-30T13:45:04;3.90;;;2.88;;
11016;SDS011;54687;50.800;6.772;2023-09-30T13:47:31;4.70;;;3.00;;
11016;SDS011;54687;50.800;6.772;2023-09-30T13:50:00;6.38;;;3.80;;
11016;SDS011;54687;50.800;6.772;2023-09-30T13:52:27;5.50;;;3.40;;
11016;SDS011;54687;50.800;6.772;2023-09-30T13:54:54;6.32;;;3.58;;
11016;SDS011;54687;50.800;6.772;2023-09-30T13:57:21;5.22;;;3.60;;
11016;SDS011;54687;50.800;6.772;2023-09-30T13:59:47;4.38;;;3.15;;
11016;SDS011;54687;50.800;6.772;2023-09-30T14:02:14;6.20;;;3.95;;
11016;SDS011;54687;50.800;6.772;2023-09-30T14:04:40;4.72;;;3.20;;
11016;SDS011;54687;50.800;6.772;2023-09-30T14:07:08;4.93;;;3.30;;
11016;SDS011;54687;50.800;6.772;2023-09-30T14:09:35;4.53;;;3.10;;
11016;SDS011;54687;50.800;6.772;2023-09-30T14:12:01;4.90;;;3.38;;
11016;SDS011;54687;50.800;6.772;2023-09-30T14:14:30;4.65;;;3.25;;
11016;SDS011;54687;50.800;6.772;2023-09-30T14:16:57;3.08;;;2.70;;
11016;SDS011;54687;50.800;6.772;2023-09-30T14:19:24;6.15;;;3.58;;
11016;SDS011;54687;50.800;6.772;2023-09-30T14:21:50;7.03;;;3.75;;
11016;SDS011;54687;50.800;6.772;2023-09-30T14:24:18;5.95;;;3.33;;
11016;SDS011;54687;50.800;6.772;2023-09-30T14:26:45;6.00;;;3.22;;
11016;SDS011;54687;50.800;6.772;2023-09-30T14:29:11;4.63;;;3.63;;
11016;SDS011;54687;50.800;6.772;2023-09-30T14:31:38;5.40;;;3.40;;
11016;SDS011;54687;50.800;6.772;2023-09-30T14:34:05;4.88;;;3.45;;
11016;SDS011;54687;50.800;6.772;2023-09-30T14:36:31;4.88;;;3.03;;
11016;SDS011;54687;50.800;6.772;2023-09-30T14:38:58;4.20;;;3.40;;
11016;SDS011;54687;50.800;6.772;2023-09-30T14:41:26;4.35;;;3.08;;
11016;SDS011;54687;50.800;6.772;2023-09-30T14:43:53;5.53;;;3.22;;
11016;SDS011;54687;50.800;6.772;2023-09-30T14:46:20;5.97;;;3.17;;
11016;SDS011;54687;50.800;6.772;2023-09-30T14:48:47;5.13;;;3.28;;
11016;SDS011;54687;50.800;6.772;2023-09-30T14:51:15;6.22;;;3.65;;
11016;SDS011;54687;50.800;6.772;2023-09-30T14:53:42;5.68;;;3.67;;
11016;SDS011;54687;50.800;6.772;2023-09-30T14:56:14;3.60;;;3.15;;
11016;SDS011;54687;50.800;6.772;2023-09-30T14:58:43;4.78;;;3.70;;
11016;SDS011;54687;50.800;6.772;2023-09-30T15:01:10;4.82;;;3.05;;
11016;SDS011;54687;50.800;6.772;2023-09-30T15:03:37;4.32;;;2.90;;
11016;SDS011;54687;50.800;6.772;2023-09-30T15:06:04;6.13;;;3.47;;
11016;SDS011;54687;50.800;6.772;2023-09-30T15:08:32;4.45;;;3.40;;